Time;durP1;ratioP1;P1;durP2;ratioP2;P2;SDS_P1;SDS_P2;PMS_P1;PMS_P2;Temp;Humidity;BMP_temperature;BMP_pressure;BME280_temperature;BME280_humidity;BME280_pressure;Samples;Min_cycle;Max_cycle;Signal;HPM_P1;HPM_P2
2021/04/14 00:00:07;;;;;;;3.83;2.13;;;0.20;99.90;;;-1.78;82.61;102833.22;3474871;40;102327;-40
2021/04/14 00:02:36;;;;;;;6.78;2.35;;;0.20;99.90;;;-1.77;82.63;102838.47;3498853;40;102319;-41
2021/04/14 00:05:09;;;;;;;6.28;2.45;;;0.20;99.90;;;-1.82;82.66;102834.34;3482681;40;103099;-41
2021/04/14 00:07:39;;;;;;;6.53;2.20;;;0.20;99.90;;;-2.03;82.50;102819.31;3490539;40;103207;-41
2021/04/14 00:10:08;;;;;;;5.03;2.08;;;0.10;99.90;;;-1.88;81.89;102838.19;3482376;40;105292;-41
2021/04/14 00:12:36;;;;;;;4.50;2.30;;;0.10;99.90;;;-1.96;82.04;102835.91;3498878;40;103774;-40
2021/04/14 00:15:17;;;;;;;5.00;1.80;;;0.00;99.90;;;-2.03;82.74;102840.72;3491045;39;105298;-41
2021/04/14 00:17:44;;;;;;;8.25;2.47;;;0.00;99.90;;;-2.07;82.42;102841.81;3498822;40;102198;-41
2021/04/14 00:20:14;;;;;;;5.03;2.17;;;-0.10;99.90;;;-2.08;83.06;102833.91;3491131;40;102711;-41
2021/04/14 00:22:42;;;;;;;4.57;2.20;;;-0.10;99.90;;;-2.08;82.54;102833.91;3490435;40;102466;-41
2021/04/14 00:25:19;;;;;;;5.57;2.17;;;-0.10;99.90;;;-2.11;83.18;102837.59;3481943;40;103117;-40
2021/04/14 00:27:46;;;;;;;5.95;2.13;;;-0.10;99.90;;;-2.12;82.42;102837.66;3491778;40;102291;-40
2021/04/14 00:30:15;;;;;;;5.30;2.50;;;-0.10;99.90;;;-2.15;82.42;102840.50;3482393;40;103102;-40
2021/04/14 00:32:43;;;;;;;3.47;2.08;;;-0.20;99.90;;;-2.14;82.73;102835.06;3490514;40;102154;-40
2021/04/14 00:35:13;;;;;;;4.13;2.30;;;-0.20;99.90;;;-2.16;82.46;102828.94;3474066;40;104509;-41
2021/04/14 00:37:40;;;;;;;5.00;2.03;;;-0.20;99.90;;;-2.14;82.59;102828.84;3498505;40;102519;-40
2021/04/14 00:40:14;;;;;;;4.75;2.20;;;-0.20;99.90;;;-2.18;82.45;102825.47;3474573;40;104788;-40
2021/04/14 00:42:42;;;;;;;4.95;2.10;;;-0.20;99.90;;;-2.26;82.71;102816.97;3498261;40;102377;-40
2021/04/14 00:45:11;;;;;;;6.97;2.40;;;-0.20;99.90;;;-2.21;83.29;102826.50;3474286;40;103112;-41
2021/04/14 00:47:38;;;;;;;5.15;2.20;;;-0.20;99.90;;;-2.24;82.67;102826.66;3498426;40;104798;-41
2021/04/14 00:50:11;;;;;;;5.23;2.30;;;-0.20;99.90;;;-2.23;82.56;102825.72;3482175;40;103153;-40
2021/04/14 00:52:38;;;;;;;4.65;2.17;;;-0.20;99.90;;;-2.26;82.65;102828.56;3498316;40;102450;-40
2021/04/14 00:55:12;;;;;;;6.27;2.47;;;-0.30;99.90;;;-2.31;82.98;102819.91;3482229;40;106387;-41
2021/04/14 00:57:40;;;;;;;4.30;2.08;;;-0.30;99.90;;;-2.39;82.79;102811.38;3498436;40;102474;-40
2021/04/14 01:00:18;;;;;;;6.38;2.53;;;-0.30;99.90;;;-2.44;83.38;102813.44;3482083;40;104955;-41
2021/04/14 01:02:45;;;;;;;4.70;2.20;;;-0.40;99.90;;;-2.46;83.26;102817.06;3508151;39;103446;-41
2021/04/14 01:05:16;;;;;;;3.13;1.83;;;-0.40;99.90;;;-2.46;83.35;102822.41;3482953;40;102356;-40
2021/04/14 01:07:43;;;;;;;5.85;2.13;;;-0.40;99.90;;;-2.42;83.78;102822.25;3474807;40;103494;-40
2021/04/14 01:10:13;;;;;;;5.63;2.30;;;-0.40;99.90;;;-2.40;83.84;102820.34;3474020;40;103194;-41
2021/04/14 01:12:41;;;;;;;5.65;2.15;;;-0.40;99.90;;;-2.48;83.79;102824.28;3507202;40;102597;-40
2021/04/14 01:15:14;;;;;;;5.07;2.38;;;-0.40;99.90;;;-2.54;83.90;102821.94;3474074;40;103534;-41
2021/04/14 01:17:42;;;;;;;4.10;1.90;;;-0.50;99.90;;;-2.54;83.65;102813.91;3490370;40;103295;-40
2021/04/14 01:20:10;;;;;;;6.10;2.60;;;-0.50;99.90;;;-2.56;84.04;102813.13;3482409;40;103995;-41
2021/04/14 01:22:37;;;;;;;5.05;2.40;;;-0.50;99.90;;;-2.60;83.79;102811.56;3490143;40;104444;-41
2021/04/14 01:25:10;;;;;;;5.63;2.40;;;-0.50;99.90;;;-2.63;84.03;102809.03;3466034;40;104168;-40
2021/04/14 01:27:37;;;;;;;5.07;2.30;;;-0.50;99.90;;;-2.64;84.52;102812.66;3490307;40;103403;-41
2021/04/14 01:30:20;;;;;;;6.20;2.03;;;-0.60;99.90;;;-2.67;83.92;102815.47;3466656;40;104059;-40
2021/04/14 01:32:48;;;;;;;4.07;2.00;;;-0.60;99.90;;;-2.67;84.15;102818.13;3490184;40;102351;-40
2021/04/14 01:35:17;;;;;;;;;;;-0.60;99.90;;;-2.63;84.17;102814.38;3490764;40;102754;-40
2021/04/14 01:37:48;;;;;;;4.00;2.05;;;-0.60;99.90;;;-2.64;84.12;102813.50;3498409;40;102792;-40
2021/04/14 01:40:18;;;;;;;6.22;2.08;;;-0.60;99.90;;;-2.64;83.88;102818.00;3474592;40;102748;-40
2021/04/14 01:42:45;;;;;;;8.27;2.30;;;-0.60;99.90;;;-2.72;83.83;102801.47;3490174;40;102341;-41
2021/04/14 01:45:17;;;;;;;5.93;2.00;;;-0.70;99.90;;;-2.77;84.00;102812.41;3481700;40;103171;-41
2021/04/14 01:47:45;;;;;;;4.40;2.13;;;-0.70;99.90;;;-2.81;84.35;102811.69;3481990;40;102448;-40
2021/04/14 01:50:13;;;;;;;4.82;1.95;;;-0.80;99.90;;;-2.84;84.17;102814.50;3482235;40;105378;-40
2021/04/14 01:52:42;;;;;;;4.93;2.13;;;-0.80;99.90;;;-2.88;84.60;102810.25;3506746;40;102380;-40
2021/04/14 01:55:10;;;;;;;5.90;2.40;;;-0.80;99.90;;;-2.91;84.30;102815.75;3466070;40;103096;-40
2021/04/14 01:57:38;;;;;;;5.45;2.40;;;-0.90;99.90;;;-2.95;84.32;102809.69;3490129;40;102323;-40
2021/04/14 02:00:23;;;;;;;3.63;2.10;;;-0.90;99.90;;;-2.94;84.96;102814.09;3490198;40;103137;-40
2021/04/14 02:02:50;;;;;;;4.80;2.85;;;-0.90;99.90;;;-2.94;84.91;102811.41;3532271;39;102586;-40
2021/04/14 02:05:24;;;;;;;6.50;2.10;;;-0.90;99.90;;;-2.94;85.01;102810.53;3490720;39;102206;-40
2021/04/14 02:07:52;;;;;;;5.03;2.40;;;-0.90;99.90;;;-2.95;85.31;102809.69;3474635;40;102563;-40
2021/04/14 02:10:23;;;;;;;5.93;1.95;;;-0.90;99.90;;;-2.95;85.60;102816.81;3465799;40;103352;-41
2021/04/14 02:12:51;;;;;;;4.63;2.40;;;-0.90;99.90;;;-2.99;85.25;102815.25;3490007;40;102361;-41
2021/04/14 02:15:31;;;;;;;5.45;2.30;;;-0.90;99.90;;;-3.01;85.09;102801.97;3489827;40;104156;-40
2021/04/14 02:18:00;;;;;;;5.20;2.35;;;-1.00;99.90;;;-3.06;84.96;102804.84;3498029;40;102334;-41
2021/04/14 02:20:28;;;;;;;4.00;1.95;;;-1.00;99.90;;;-3.07;84.94;102804.91;3498136;39;103264;-40
2021/04/14 02:22:56;;;;;;;5.85;2.10;;;-1.00;99.90;;;-3.09;85.32;102809.47;3482646;40;102454;-40
2021/04/14 02:25:25;;;;;;;;;;;-1.00;99.90;;;-3.09;85.25;102804.13;3498511;40;102296;-40
2021/04/14 02:27:52;;;;;;;7.17;1.70;;;-1.00;99.90;;;-3.10;85.00;102803.28;3490161;40;103436;-40
2021/04/14 02:30:27;;;;;;;3.65;1.65;;;-1.00;99.90;;;-3.09;84.80;102801.47;3474490;40;102262;-40
2021/04/14 02:32:56;;;;;;;8.48;2.53;;;-1.10;99.90;;;-3.07;84.88;102799.56;3498706;40;102335;-40
2021/04/14 02:35:26;;;;;;;4.63;2.17;;;-1.10;99.90;;;-3.10;84.90;102794.38;3489835;40;105851;-40
2021/04/14 02:37:54;;;;;;;5.97;2.05;;;-1.10;99.90;;;-3.16;85.32;102797.38;3497615;40;104510;-40
2021/04/14 02:40:23;;;;;;;4.88;1.95;;;-1.10;99.90;;;-3.22;85.34;102798.50;3489664;40;104086;-40
2021/04/14 02:42:51;;;;;;;6.57;2.30;;;-1.20;99.90;;;-3.26;85.54;102799.59;3489838;40;102311;-40
2021/04/14 02:45:23;;;;;;;;;;;-1.20;99.90;;;-3.30;85.32;102788.22;3490892;40;102166;-40
2021/04/14 02:47:50;;;;;;;4.35;1.90;;;-1.20;99.90;;;-3.34;85.62;102797.28;3498611;40;102193;-40
2021/04/14 02:50:20;;;;;;;6.53;2.00;;;-1.20;99.90;;;-3.39;85.18;102794.88;3473666;40;104515;-40
2021/04/14 02:52:48;;;;;;;4.13;2.20;;;-1.30;99.90;;;-3.40;85.08;102785.13;3489705;40;104229;-40
2021/04/14 02:55:17;;;;;;;5.25;2.15;;;-1.30;99.90;;;-3.39;85.36;102792.19;3473444;40;104367;-40
2021/04/14 02:57:47;;;;;;;4.32;1.77;;;-1.30;99.90;;;-3.38;85.61;102793.91;3482003;40;102444;-40
2021/04/14 03:00:17;;;;;;;3.75;2.17;;;-1.30;99.90;;;-3.40;85.49;102782.47;3481597;40;102249;-40
2021/04/14 03:02:45;;;;;;;4.35;2.20;;;-1.30;99.90;;;-3.40;85.71;102789.59;3523144;39;102226;-40
2021/04/14 03:05:15;;;;;;;3.40;2.10;;;-1.30;99.90;;;-3.42;85.58;102781.66;3481232;40;103294;-40
2021/04/14 03:07:43;;;;;;;4.20;2.10;;;-1.40;99.90;;;-3.42;86.12;102784.34;3481534;40;104546;-40
2021/04/14 03:10:12;;;;;;;3.35;2.00;;;-1.40;99.90;;;-3.43;86.15;102787.94;3490159;39;103277;-40
2021/04/14 03:12:40;;;;;;;4.55;2.17;;;-1.40;99.90;;;-3.44;86.32;102780.00;3497631;40;102560;-40
2021/04/14 03:15:12;;;;;;;3.45;1.58;;;-1.40;99.90;;;-3.42;86.60;102784.34;3489773;40;103406;-40
2021/04/14 03:17:40;;;;;;;4.72;2.13;;;-1.40;99.90;;;-3.42;86.49;102773.66;3498059;40;104081;-40
2021/04/14 03:20:10;;;;;;;4.40;2.72;;;-1.40;99.90;;;-3.42;86.13;102778.13;3490828;39;102292;-40
2021/04/14 03:22:37;;;;;;;3.75;2.00;;;-1.40;99.90;;;-3.42;86.24;102771.00;3497281;40;102271;-40
2021/04/14 03:25:06;;;;;;;5.03;2.22;;;-1.40;99.90;;;-3.43;86.25;102760.38;3473945;40;102807;-40
2021/04/14 03:27:34;;;;;;;4.60;2.38;;;-1.40;99.90;;;-3.49;86.09;102772.19;3490952;39;102256;-40
2021/04/14 03:30:04;;;;;;;5.38;2.30;;;-1.40;99.90;;;-3.53;86.58;102766.16;3489569;40;104912;-40
2021/04/14 03:32:32;;;;;;;3.95;2.33;;;-1.50;99.90;;;-3.54;86.74;102769.75;3489525;40;102680;-41
2021/04/14 03:34:59;;;;;;;6.40;2.35;;;-1.50;99.90;;;-3.47;87.15;102767.66;3473853;40;102251;-40
2021/04/14 03:37:27;;;;;;;4.28;2.20;;;-1.40;99.90;;;-3.45;87.43;102767.59;3489324;40;103176;-40
2021/04/14 03:39:54;;;;;;;5.95;2.15;;;-1.40;99.90;;;-3.45;86.70;102760.44;3489951;40;102289;-40
2021/04/14 03:42:22;;;;;;;7.60;2.17;;;-1.40;99.90;;;-3.49;86.68;102762.41;3481315;40;103556;-40
2021/04/14 03:44:53;;;;;;;3.65;1.98;;;-1.40;99.90;;;-3.48;86.67;102764.13;3481081;40;102186;-40
2021/04/14 03:47:21;;;;;;;5.65;2.13;;;-1.40;99.90;;;-3.51;86.56;102758.06;3489434;40;102283;-40
2021/04/14 03:49:52;;;;;;;4.80;2.30;;;-1.50;99.90;;;-3.55;86.58;102756.47;3497414;40;105507;-40
2021/04/14 03:52:21;;;;;;;4.32;2.05;;;-1.50;99.90;;;-3.55;86.59;102753.81;3489057;40;102371;-40
2021/04/14 03:54:49;;;;;;;4.43;2.00;;;-1.50;99.90;;;-3.48;86.41;102766.78;3489276;40;102319;-40
2021/04/14 03:57:16;;;;;;;4.03;2.13;;;;;;;-3.46;86.59;102761.38;3497440;40;103273;-40
2021/04/14 03:59:43;;;;;;;7.65;2.65;;;-1.40;99.90;;;-3.52;86.42;102751.88;3506217;40;102393;-40
2021/04/14 04:02:10;;;;;;;7.57;2.10;;;-1.40;99.90;;;-3.56;86.48;102749.41;3473207;40;102646;-40
2021/04/14 04:04:37;;;;;;;5.75;1.98;;;-1.50;99.90;;;-3.62;86.22;102746.09;3481373;40;102453;-40
2021/04/14 04:07:04;;;;;;;5.95;2.10;;;-1.60;99.90;;;-3.66;86.32;102749.84;3489491;40;104962;-40
2021/04/14 04:09:32;;;;;;;4.33;2.10;;;-1.60;99.90;;;-3.65;86.77;102754.25;3481372;40;104273;-40
2021/04/14 04:11:59;;;;;;;4.50;2.07;;;-1.60;99.90;;;-3.68;86.61;102741.06;3490405;40;102321;-40
2021/04/14 04:14:31;;;;;;;5.72;2.10;;;-1.60;99.90;;;-3.70;86.78;102748.28;3491021;39;104117;-40
2021/04/14 04:16:58;;;;;;;6.40;2.30;;;-1.60;99.90;;;-3.74;86.61;102743.97;3492041;40;102299;-40
2021/04/14 04:19:25;;;;;;;5.60;2.40;;;-1.70;99.90;;;-3.76;86.85;102753.88;3483899;40;103146;-41
2021/04/14 04:21:52;;;;;;;5.18;2.17;;;-1.70;99.90;;;-3.86;87.08;102753.41;3490563;39;102224;-40
2021/04/14 04:24:20;;;;;;;4.68;1.92;;;-1.70;99.90;;;-3.81;87.19;102750.56;3475233;40;103098;-41
2021/04/14 04:26:47;;;;;;;6.00;2.30;;;-1.70;99.90;;;-3.80;87.20;102753.16;3490355;40;102336;-40
2021/04/14 04:29:14;;;;;;;4.35;2.10;;;-1.70;99.90;;;-3.71;87.43;102754.53;3482525;40;103142;-40
2021/04/14 04:31:41;;;;;;;4.57;2.10;;;-1.70;99.90;;;-3.65;87.11;102751.59;3482589;40;103833;-40
2021/04/14 04:34:08;;;;;;;5.25;2.35;;;-1.60;99.90;;;-3.65;87.72;102754.25;3490689;40;103895;-40
2021/04/14 04:36:35;;;;;;;4.40;2.28;;;-1.60;99.90;;;-3.67;87.18;102744.56;3482969;40;102714;-40
2021/04/14 04:39:04;;;;;;;4.85;2.30;;;-1.60;99.90;;;-3.64;87.14;102753.31;3490756;39;102854;-40
2021/04/14 04:41:32;;;;;;;4.55;2.35;;;-1.60;99.90;;;-3.63;86.82;102760.38;3498627;40;102126;-40
2021/04/14 04:43:59;;;;;;;7.80;2.30;;;-1.60;99.90;;;-3.57;87.16;102769.03;3481947;40;105976;-40
2021/04/14 04:46:26;;;;;;;7.07;2.20;;;-1.60;99.90;;;-3.52;87.70;102767.00;3498606;40;103249;-40
2021/04/14 04:48:53;;;;;;;7.70;2.30;;;-1.60;99.90;;;-3.53;87.92;102755.47;3483737;40;104063;-40
2021/04/14 04:51:20;;;;;;;5.65;2.35;;;-1.50;99.90;;;-3.40;88.14;102770.91;3482393;40;102274;-40
2021/04/14 04:53:47;;;;;;;3.67;2.15;;;-1.50;99.90;;;-3.36;88.27;102772.47;3498272;40;105668;-40
2021/04/14 04:56:18;;;;;;;4.60;2.13;;;-1.40;99.90;;;-3.32;88.32;102758.03;3482285;40;103410;-40
2021/04/14 04:58:45;;;;;;;5.75;2.60;;;-1.30;99.90;;;-3.27;88.62;102771.19;3490383;40;105087;-40
2021/04/14 05:01:12;;;;;;;6.07;2.42;;;-1.30;99.90;;;-3.26;88.53;102772.91;3498795;40;102409;-40
2021/04/14 05:03:40;;;;;;;5.75;2.47;;;-1.30;99.90;;;-3.20;88.65;102778.81;3490171;40;102371;-40
2021/04/14 05:06:07;;;;;;;4.70;2.47;;;-1.30;99.90;;;-3.18;89.03;102781.44;3482475;40;102349;-40
2021/04/14 05:08:35;;;;;;;7.53;2.65;;;-1.20;99.90;;;-3.10;88.97;102786.38;3490388;40;102581;-40
2021/04/14 05:11:03;;;;;;;4.32;2.30;;;-1.20;99.90;;;-3.00;89.51;102774.31;3499049;40;103495;-40
2021/04/14 05:13:30;;;;;;;6.78;2.72;;;-1.10;99.90;;;-2.94;89.67;102778.47;3497989;40;102147;-40
2021/04/14 05:15:57;;;;;;;6.60;2.70;;;-1.00;99.90;;;-2.83;89.96;102770.81;3482658;40;103336;-41
2021/04/14 05:18:24;;;;;;;6.70;2.72;;;-0.90;99.90;;;-2.78;90.19;102771.44;3490497;40;102416;-41
2021/04/14 05:20:52;;;;;;;5.90;2.97;;;-0.90;99.90;;;-2.67;90.32;102770.03;3474921;40;102397;-40
2021/04/14 05:23:19;;;;;;;6.68;2.90;;;-0.80;99.90;;;-2.60;89.74;102780.34;3490600;39;103252;-41
2021/04/14 05:25:46;;;;;;;6.03;2.80;;;-0.70;99.90;;;-2.57;90.20;102789.13;3498441;40;102473;-40
2021/04/14 05:28:17;;;;;;;4.97;2.78;;;-0.70;99.90;;;-2.55;89.70;102795.25;3490303;40;103296;-40
2021/04/14 05:30:44;;;;;;;7.07;2.78;;;-0.70;99.90;;;-2.50;90.41;102794.09;3508211;40;102523;-40
2021/04/14 05:33:13;;;;;;;3.40;2.33;;;-0.60;99.90;;;-2.42;89.73;102790.16;3490159;40;102513;-40
2021/04/14 05:35:41;;;;;;;5.90;2.55;;;-0.60;99.90;;;-2.34;89.54;102794.16;3498142;40;103001;-40
2021/04/14 05:38:10;;;;;;;6.85;3.25;;;-0.50;99.90;;;-2.27;89.47;102800.06;3498782;40;103168;-41
2021/04/14 05:40:39;;;;;;;5.88;2.47;;;-0.40;99.90;;;-2.22;89.49;102808.72;3506517;40;104851;-40
2021/04/14 05:43:20;;;;;;;5.97;2.60;;;-0.40;99.90;;;-2.17;89.73;102812.00;3507367;40;103356;-41
2021/04/14 05:45:56;;;;;;;7.25;2.80;;;-0.30;99.90;;;-2.11;89.62;102815.34;3498613;40;102432;-41
2021/04/14 05:48:24;;;;;;;8.98;3.00;;;-0.30;99.90;;;-2.01;89.73;102811.22;3498171;40;102812;-40
2021/04/14 05:50:54;;;;;;;6.25;2.90;;;-0.20;99.90;;;-1.94;90.12;102811.78;3498378;40;102214;-40
2021/04/14 05:53:22;;;;;;;7.43;3.00;;;-0.10;99.90;;;-1.89;89.87;102813.22;3498298;40;102215;-40
2021/04/14 05:55:51;;;;;;;9.52;2.97;;;-0.10;99.90;;;-1.81;90.37;102811.97;3498817;39;102365;-40
2021/04/14 05:58:18;;;;;;;6.55;2.97;;;0.00;99.90;;;-1.73;89.72;102807.06;3482346;40;105654;-40
2021/04/14 06:00:45;;;;;;;10.83;4.00;;;0.10;99.90;;;-1.63;90.21;102810.13;3482154;40;102330;-41
2021/04/14 06:03:12;;;;;;;6.75;3.17;;;0.20;99.90;;;-1.54;89.58;102804.25;3498050;40;103125;-41
2021/04/14 06:05:39;;;;;;;7.32;3.00;;;0.30;99.90;;;-1.42;90.40;102812.56;3506966;40;103131;-41
2021/04/14 06:08:06;;;;;;;6.55;3.55;;;0.40;99.90;;;-1.41;89.47;102801.75;3498846;39;103225;-41
2021/04/14 06:10:33;;;;;;;8.75;3.67;;;0.40;99.90;;;-1.29;89.60;102810.09;3473551;40;103331;-40
2021/04/14 06:13:00;;;;;;;17.98;4.40;;;0.50;99.90;;;-1.20;89.42;102806.88;3482473;40;103761;-40
2021/04/14 06:15:33;;;;;;;10.13;3.92;;;0.60;99.90;;;-1.13;89.75;102813.59;3497665;40;102402;-40
2021/04/14 06:18:01;;;;;;;6.30;3.20;;;0.60;99.90;;;-1.07;89.11;102807.06;3498248;40;105000;-40
2021/04/14 06:20:33;;;;;;;8.30;3.42;;;0.70;99.90;;;-0.98;89.26;102811.03;3498334;40;103800;-41
2021/04/14 06:23:05;;;;;;;8.57;4.20;;;0.70;99.90;;;-0.89;89.13;102815.84;3506423;40;105083;-41
2021/04/14 06:25:38;;;;;;;6.72;3.55;;;0.80;99.90;;;-0.79;88.85;102809.03;3498451;40;102239;-41
2021/04/14 06:28:07;;;;;;;8.88;4.28;;;0.90;99.90;;;-0.70;88.45;102796.88;3498395;40;105692;-40
2021/04/14 06:30:38;;;;;;;9.43;3.90;;;1.00;99.90;;;-0.52;88.20;102808.34;3507334;40;102600;-40
2021/04/14 06:33:09;;;;;;;8.30;4.45;;;1.10;99.90;;;-0.33;87.88;102801.88;3497644;40;103273;-41
2021/04/14 06:35:37;;;;;;;9.40;4.30;;;1.30;99.90;;;-0.19;87.34;102814.47;3498066;40;103233;-41
2021/04/14 06:38:05;;;;;;;8.77;4.35;;;1.40;99.90;;;0.03;86.59;102815.84;3497687;40;103098;-41
2021/04/14 06:40:51;;;;;;;10.05;4.68;;;1.60;99.90;;;0.35;85.44;102819.22;3491038;40;102347;-41
2021/04/14 06:43:48;;;;;;;12.02;4.78;;;1.80;99.90;;;0.76;83.03;102839.06;3507040;40;104094;-42
2021/04/14 06:46:26;;;;;;;9.23;4.30;;;2.20;99.90;;;1.08;83.18;102848.69;3508079;40;102624;-41
2021/04/14 06:49:18;;;;;;;8.75;4.70;;;2.40;99.90;;;1.24;82.24;102849.41;3498982;39;102950;-41
2021/04/14 06:52:01;;;;;;;9.30;4.85;;;2.70;99.90;;;1.37;82.03;102843.22;3506477;40;104089;-41
2021/04/14 06:54:51;;;;;;;10.15;5.03;;;2.80;99.90;;;1.49;80.90;102852.31;3506582;40;103153;-40
2021/04/14 06:57:26;;;;;;;10.02;4.63;;;3.00;99.90;;;1.53;80.72;102854.66;3497162;40;102333;-41
2021/04/14 07:00:04;;;;;;;8.65;4.38;;;3.10;99.90;;;1.55;80.86;102879.63;3506241;40;104064;-41
2021/04/14 07:02:47;;;;;;;7.18;4.15;;;3.10;99.90;;;1.51;80.39;102870.06;3490284;40;102069;-40
2021/04/14 07:05:23;;;;;;;8.77;4.53;;;3.20;99.90;;;1.51;80.74;102871.91;3642709;22;103329;-41
2021/04/14 07:07:54;;;;;;;8.48;4.32;;;3.20;99.90;;;1.50;81.04;102865.63;3499104;40;103814;-40
2021/04/14 07:10:30;;;;;;;9.85;4.40;;;3.20;99.90;;;1.54;80.72;102869.84;3506780;40;102304;-40
2021/04/14 07:13:04;;;;;;;10.02;5.15;;;3.20;99.90;;;1.55;80.43;102868.88;3516548;40;102333;-40
2021/04/14 07:15:33;;;;;;;12.02;5.22;;;3.20;99.90;;;1.55;79.81;102871.56;3505296;40;102156;-40
2021/04/14 07:18:25;;;;;;;9.77;5.40;;;3.20;99.90;;;1.62;79.13;102872.03;3498084;39;102325;-40
2021/04/14 07:21:09;;;;;;;9.70;5.65;;;3.30;99.90;;;1.70;79.14;102871.50;3506694;39;103271;-40
2021/04/14 07:23:43;;;;;;;12.60;5.40;;;3.30;99.90;;;1.85;78.27;102875.84;3497744;39;102366;-41
2021/04/14 07:26:22;;;;;;;9.90;5.18;;;3.40;99.90;;;1.81;78.45;102850.09;3497534;40;103981;-40
2021/04/14 07:29:09;;;;;;;15.15;5.82;;;3.60;99.90;;;2.04;77.18;102868.34;3497560;40;103323;-40
2021/04/14 07:31:52;;;;;;;14.93;7.03;;;3.60;99.90;;;2.09;76.46;102872.44;3506668;39;103107;-40
2021/04/14 07:34:34;;;;;;;18.08;8.50;;;3.70;99.90;;;2.21;78.27;102877.97;3506893;39;102444;-40
2021/04/14 07:37:20;;;;;;;16.25;7.95;;;3.80;99.90;;;2.29;77.25;102883.66;3497326;40;104146;-40
2021/04/14 07:40:02;;;;;;;16.30;8.05;;;3.90;99.90;;;2.39;77.55;102871.28;3498835;39;103235;-40
2021/04/14 07:42:39;;;;;;;18.20;7.72;;;4.00;99.90;;;2.50;78.30;102877.75;3497230;40;105714;-40
2021/04/14 07:45:27;;;;;;;16.55;7.75;;;4.10;99.90;;;2.55;78.61;102873.75;3506489;39;102325;-40
2021/04/14 07:48:07;;;;;;;16.73;7.95;;;4.10;99.90;;;2.60;78.85;102876.09;3507778;40;103130;-40
2021/04/14 07:50:41;;;;;;;19.02;7.35;;;4.20;99.90;;;2.75;78.53;102881.38;3499332;39;102444;-40
2021/04/14 07:53:22;;;;;;;18.60;8.15;;;4.30;99.90;;;2.86;78.29;102879.63;3498518;40;103985;-40
2021/04/14 07:56:13;;;;;;;13.40;6.85;;;4.40;99.90;;;3.01;79.05;102874.97;3498600;40;103358;-41
2021/04/14 07:58:43;;;;;;;18.55;7.28;;;4.60;99.90;;;3.05;78.70;102877.44;3507487;40;103849;-40
2021/04/14 08:01:24;;;;;;;13.05;7.32;;;4.60;99.90;;;3.09;78.65;102878.94;3499220;39;103195;-40
2021/04/14 08:04:08;;;;;;;18.80;7.75;;;4.70;99.90;;;3.09;78.34;102878.94;3498716;39;102443;-40
2021/04/14 08:06:35;;;;;;;14.43;7.15;;;4.70;99.90;;;2.99;78.60;102881.44;3498889;39;102419;-40
2021/04/14 08:09:16;;;;;;;17.73;7.85;;;4.70;99.90;;;2.87;79.59;102885.88;3498563;39;103972;-40
2021/04/14 08:11:43;;;;;;;16.48;7.30;;;4.60;99.90;;;2.81;79.59;102883.63;3498656;39;102312;-40
2021/04/14 08:14:25;;;;;;;16.88;7.35;;;4.50;99.90;;;2.79;79.33;102877.50;3499080;39;103086;-40
2021/04/14 08:16:55;;;;;;;14.73;7.07;;;4.50;99.90;;;2.76;78.77;102880.41;3507074;40;102259;-39
2021/04/14 08:19:35;;;;;;;15.45;7.40;;;4.50;99.90;;;2.86;80.09;102876.94;3508170;39;102373;-40
2021/04/14 08:22:14;;;;;;;17.13;8.02;;;4.50;99.90;;;2.96;80.83;102866.34;3491060;40;103201;-40
2021/04/14 08:24:55;;;;;;;15.32;8.13;;;4.50;99.90;;;3.08;80.85;102879.91;3498374;40;104088;-40
2021/04/14 08:30:25;;;;;;;19.73;8.45;;;4.70;99.90;;;3.13;77.46;102859.72;3501845;39;102257;-40
2021/04/14 08:32:53;;;;;;;14.73;7.55;;;4.70;99.90;;;3.24;79.84;102853.53;3507738;39;102383;-39
2021/04/14 08:35:46;;;;;;;178.35;21.52;;;4.80;99.90;;;3.40;79.20;102846.97;3507338;39;103415;-40
2021/04/14 08:38:28;;;;;;;19.40;9.43;;;4.80;99.90;;;3.54;78.31;102840.53;3498839;40;102371;-40
2021/04/14 08:41:05;;;;;;;39.85;11.57;;;5.00;99.90;;;3.66;77.02;102825.22;3507858;40;103152;-40
2021/04/14 08:43:42;;;;;;;13.88;7.15;;;5.10;99.90;;;3.91;76.06;102842.25;3505391;40;102522;-40
2021/04/14 08:46:15;;;;;;;16.30;7.80;;;5.30;99.90;;;4.10;74.36;102847.94;3507681;39;103959;-40
2021/04/14 08:48:57;;;;;;;15.25;6.97;;;5.50;99.90;;;4.27;72.79;102854.72;3490956;40;103456;-40
2021/04/14 08:51:25;;;;;;;14.98;6.95;;;5.70;99.90;;;4.39;72.73;102847.50;3498584;39;102269;-40
2021/04/14 08:53:56;;;;;;;14.30;7.95;;;5.70;99.90;;;4.50;69.58;102848.47;3507398;39;102254;-40
2021/04/14 08:56:24;;;;;;;13.30;6.95;;;5.90;99.90;;;4.56;69.51;102851.53;3498160;40;104756;-40
2021/04/14 08:58:54;;;;;;;28.08;7.72;;;6.00;99.90;;;4.71;68.95;102851.31;3491217;39;102796;-40
2021/04/14 09:01:26;;;;;;;14.32;7.15;;;6.10;99.90;;;4.97;67.50;102842.91;3507365;40;103100;-40
2021/04/14 09:03:56;;;;;;;14.35;6.50;;;6.30;99.90;;;5.17;64.91;102841.28;3507514;39;102393;-40
2021/04/14 09:06:24;;;;;;;12.77;6.20;;;6.40;99.90;;;5.33;60.11;102832.72;3507733;39;102174;-40
2021/04/14 09:08:56;;;;;;;10.98;6.18;;;6.60;99.90;;;5.46;59.00;102844.25;3507349;39;102421;-40
2021/04/14 09:11:34;;;;;;;12.52;7.30;;;6.70;99.90;;;5.70;63.32;102840.47;3507655;39;103234;-40
2021/04/14 09:14:19;;;;;;;12.15;6.85;;;7.00;99.90;;;5.83;58.79;102839.41;3507242;39;102307;-41
2021/04/14 09:17:01;;;;;;;11.93;6.80;;;7.10;99.90;;;6.13;63.14;102835.94;3507551;39;102627;-40
2021/04/14 09:19:46;;;;;;;13.63;6.22;;;7.30;99.90;;;5.92;55.93;102829.63;3490526;40;102656;-40
2021/04/14 09:22:16;;;;;;;13.05;6.63;;;7.40;99.90;;;6.02;57.30;102825.16;3507925;39;104213;-40
2021/04/14 09:24:57;;;;;;;11.30;6.20;;;7.40;99.90;;;6.09;60.03;102830.91;3506977;40;102419;-41
2021/04/14 09:27:32;;;;;;;12.27;6.35;;;7.50;99.90;;;6.12;58.27;102826.09;3507422;39;103126;-40
2021/04/14 09:30:12;;;;;;;12.02;5.95;;;7.50;99.90;;;6.10;58.70;102825.38;3498774;39;102203;-40
2021/04/14 09:32:53;;;;;;;13.18;6.32;;;7.60;99.90;;;6.06;58.54;102823.88;3507748;39;102208;-40
2021/04/14 09:35:31;;;;;;;10.48;6.20;;;7.60;99.90;;;5.96;57.61;102817.53;3497604;40;104459;-40
2021/04/14 09:38:23;;;;;;;14.13;6.80;;;7.50;99.90;;;5.96;57.63;102821.09;3507905;39;102337;-40
2021/04/14 09:40:53;;;;;;;10.43;5.90;;;7.50;99.90;;;6.09;59.20;102817.34;3497821;40;102394;-40
2021/04/14 09:43:31;;;;;;;11.77;6.13;;;7.50;99.90;;;6.31;57.10;102816.31;3497854;40;103200;-41
2021/04/14 09:46:07;;;;;;;10.05;5.72;;;7.60;99.90;;;6.47;58.06;102813.09;3507701;39;102458;-40
2021/04/14 09:48:47;;;;;;;12.75;6.25;;;7.70;99.90;;;6.58;56.61;102814.88;3498956;40;104203;-41
2021/04/14 09:51:27;;;;;;;14.73;6.68;;;7.90;99.90;;;6.67;56.63;102811.34;3507672;39;102198;-40
2021/04/14 09:53:58;;;;;;;13.90;6.97;;;8.00;99.90;;;6.83;55.65;102813.53;3507166;39;102257;-40
2021/04/14 09:56:32;;;;;;;13.77;6.40;;;8.20;99.90;;;7.22;58.27;102806.44;3499058;39;102346;-40
2021/04/14 09:59:15;;;;;;;11.50;6.22;;;8.40;99.90;;;7.59;55.18;102812.03;3507933;39;102425;-40
2021/04/14 10:01:47;;;;;;;10.40;6.30;;;8.70;99.90;;;7.56;53.40;102815.03;3498144;40;103525;-40
2021/04/14 10:04:22;;;;;;;13.25;6.28;;;8.80;99.90;;;7.25;52.77;102806.16;3506992;40;104063;-40
2021/04/14 10:06:55;;;;;;;12.38;5.85;;;8.70;99.90;;;7.49;52.22;102805.75;3498447;39;103412;-41
2021/04/14 10:09:29;;;;;;;10.98;5.88;;;8.80;99.90;;;7.83;53.39;102807.16;3506165;39;103304;-40
2021/04/14 10:12:11;;;;;;;10.45;5.93;;;9.00;99.90;;;8.07;49.73;102803.94;3507409;40;102323;-40
2021/04/14 10:14:52;;;;;;;12.35;6.32;;;9.20;99.80;;;8.24;48.23;102804.19;3506421;40;104320;-40
2021/04/14 10:17:23;;;;;;;13.15;6.55;;;9.40;97.80;;;8.28;48.83;102771.09;3507517;39;102477;-40
2021/04/14 10:19:54;;;;;;;11.50;6.25;;;9.50;98.00;;;8.75;51.98;102802.84;3507428;39;104002;-40
2021/04/14 10:22:29;;;;;;;10.57;6.15;;;9.80;99.90;;;8.87;50.29;102794.47;3498177;39;103122;-40
2021/04/14 10:25:18;;;;;;;11.40;6.38;;;9.90;99.40;;;9.03;51.39;102791.06;3507045;39;102961;-40
2021/04/14 10:27:50;;;;;;;11.13;6.38;;;10.10;99.90;;;9.03;47.36;102793.78;3507775;39;102262;-40
2021/04/14 10:30:22;;;;;;;12.65;6.68;;;10.20;97.00;;;9.09;47.53;102784.13;3507822;39;102141;-41
2021/04/14 10:32:52;;;;;;;14.55;7.32;;;10.20;96.00;;;9.18;46.76;102785.94;3507487;39;102379;-41